Pleasant Ridge, Louisiana
Current Conditions -  °F | °C
As of 4:53 PM on Thursday 27 Nov 2014 (Local Time) from KESF Reporting Station
Clear Clear  
Wind Chill: 52°   Ceiling: Unl
Heat Index: 52°   Visibility: 10mi
Dew Point: 31°   Wind: 3mph
Humidity: 45%   Direction: 360°N
Pressure: 30.45"   Gusts: NA
Location:  31.8657°N, 92.2616°W
Report Text: KESF 272253Z AUTO 36003KT 10SM CLR 11/M01 A3045 RMK AO2 SLP311 T01111006
Loading
Personal Weather Stations






























Interactive Weather Map New forecast layout! Learn more

10-Day Weather Forecast

Advertisements
Track Severe Weather on mobile